Latest Coastal Weather Observations for Creal Reef

IDQ60701

Issued at 8:42 pm EST Wednesday 13 December 2017 (issued every 10 minutes, with the page automatically refreshed every 10 minutes)

About coastal observations | Map of coastal stations | Coastal observations for QLD | Marine services | Other Formats
Station Details ID: 200736 Name: CREAL REEF Lat: -20.53 Lon: 150.38 Height: 1.7 m
Data from the previous 72 hours. | See also: Recent months for locations in Queensland
Date/Time
EST
Temp
°C
Wind Pressure Rain since
9am
mm
Weather Cloud Vis
km
Sea
Height
m
Swell
Dir  Spd
kts
Gust
kts
hPa Trend Height
m
Period
s
Dir
13/08:30pm 25.6 SE 18 23 1011.0 - - - - - - - - -
13/08:20pm 25.2 SE 20 - 1010.9 - - - - - - - - -
13/08:00pm 26.0 SE 19 23 1010.8 - - - - - - - - -
13/07:30pm 26.5 SE 21 23 1010.6 - - - - - - - - -
13/07:20pm 26.4 SE 21 - 1010.5 - - - - - - - - -
13/07:00pm 26.2 SSE 19 23 1010.4 - - - - - - - - -
13/06:30pm 26.2 SSE 19 22 1010.0 - - - - - - - - -
13/06:20pm 26.2 SSE 18 - 1009.7 - - - - - - - - -
13/06:00pm 26.1 SE 19 22 1009.6 - - - - - - - - -
13/05:30pm 26.0 SSE 16 21 1009.3 - - - - - - - - -
13/05:20pm 25.8 SSE 17 - 1009.2 - - - - - - - - -
13/05:00pm 26.0 SSE 18 22 1008.9 - - - - - - - - -
13/04:30pm 26.2 SSE 18 22 1008.7 - - - - - - - - -
13/04:20pm 26.2 SSE 19 - 1008.6 - - - - - - - - -
13/04:00pm 26.0 SSE 20 24 1008.6 - - - - - - - - -
13/03:30pm 26.2 SSE 19 22 1008.7 - - - - - - - - -
13/03:20pm 25.9 SSE 19 - 1008.7 - - - - - - - - -
13/03:00pm 26.2 SSE 20 25 1008.9 - - - - - - - - -
13/02:30pm 26.0 SSE 19 25 1009.1 - - - - - - - - -
13/02:20pm 26.4 SSE 19 - 1009.2 - - - - - - - - -
13/02:00pm 26.7 SSE 19 24 1009.5 - - - - - - - - -
13/01:30pm 26.4 SSE 18 23 1009.7 - - - - - - - - -
13/01:20pm 26.6 SSE 19 - 1009.8 - - - - - - - - -
13/01:00pm 26.4 SSE 17 20 1010.1 - - - - - - - - -
13/12:30pm 26.1 SSE 17 21 1010.5 - - - - - - - - -
13/12:20pm 26.2 SSE 17 - 1010.4 - - - - - - - - -
13/12:00pm 26.1 SSE 17 21 1010.7 - - - - - - - - -
13/11:30am 26.1 SSE 15 19 1011.0 - - - - - - - - -
13/11:20am 26.1 SSE 16 - 1011.0 - - - - - - - - -
13/11:00am 25.9 SSE 16 21 1011.4 - - - - - - - - -
13/10:30am 26.1 SSE 17 21 1011.7 - - - - - - - - -
13/10:20am 26.1 SSE 18 - 1011.5 - - - - - - - - -
13/10:00am 26.0 SSE 18 21 1011.6 - - - - - - - - -
13/09:30am 25.9 SSE 18 21 1011.4 - - - - - - - - -
13/09:20am 26.0 SSE 17 - 1011.3 - - - - - - - - -
13/09:00am 25.9 SE 19 21 1011.5 - - - - - - - - -
13/08:30am 26.0 SSE 18 22 1011.4 - - - - - - - - -
13/08:20am 25.9 SSE 19 - 1011.3 - - - - - - - - -
13/08:00am 25.9 SE 20 23 1011.4 - - - - - - - - -
13/07:30am 25.9 SE 20 23 1011.1 - - - - - - - - -
13/07:20am 26.0 SE 20 - 1010.9 - - - - - - - - -
13/07:00am 25.9 SE 21 25 1010.9 - - - - - - - - -
13/06:30am 25.8 SE 21 24 1010.6 - - - - - - - - -
13/06:20am 26.0 SE 21 - 1010.4 - - - - - - - - -
13/06:00am 25.9 SE 22 24 1010.3 - - - - - - - - -
13/05:30am 25.6 SE 21 25 1010.1 - - - - - - - - -
13/05:20am 25.6 SE 21 - 1009.8 - - - - - - - - -
13/05:00am 25.6 SE 22 27 1009.5 - - - - - - - - -
13/04:30am 25.7 SE 21 25 1009.6 - - - - - - - - -
13/04:20am 26.0 SE 20 - 1009.4 - - - - - - - - -
13/04:00am 25.6 SE 22 26 1009.5 - - - - - - - - -
13/03:30am 26.0 SE 20 23 1009.5 - - - - - - - - -
13/03:20am 25.5 SE 20 - 1009.3 - - - - - - - - -
13/03:00am 25.7 SE 21 25 1009.3 - - - - - - - - -
13/02:30am 25.6 SE 22 26 1009.3 - - - - - - - - -
13/02:20am 25.7 SE 22 - 1009.2 - - - - - - - - -
13/02:00am 25.6 SE 23 26 1009.5 - - - - - - - - -
13/01:30am 25.8 SE 23 26 1009.8 - - - - - - - - -
13/01:20am 25.7 SE 23 - 1009.8 - - - - - - - - -
13/01:00am 25.7 SE 23 27 1010.1 - - - - - - - - -
13/12:30am 25.8 SE 22 25 1010.4 - - - - - - - - -
13/12:20am 25.7 SE 22 - 1010.4 - - - - - - - - -
13/12:00am 25.7 SE 23 26 1010.8 - - - - - - - - -
 
Date/Time
EST
Temp
°C
Wind Pressure Rain since
9am
mm
Weather Cloud Vis
km
Sea
Height
m
Swell
Dir  Spd
kts
Gust
kts
hPa Trend Height
m
Period
s
Dir
12/11:30pm 25.9 SE 23 26 1011.2 - - - - - - - - -
12/11:20pm 26.0 SE 22 - 1011.3 - - - - - - - - -
12/11:00pm 26.1 SE 22 26 1011.6 - - - - - - - - -
12/10:30pm 26.0 SE 25 28 1011.9 - - - - - - - - -
12/10:20pm 25.8 SE 23 - 1011.9 - - - - - - - - -
12/10:00pm 26.2 SE 25 29 1012.0 - - - - - - - - -
12/09:30pm 26.2 SE 25 29 1011.9 - - - - - - - - -
12/09:20pm 26.3 SE 25 - 1011.9 - - - - - - - - -
12/09:00pm 26.4 SE 26 30 1011.8 - - - - - - - - -
12/08:30pm 26.1 SE 24 29 1011.7 - - - - - - - - -
12/08:20pm 25.8 SSE 23 - 1011.7 - - - - - - - - -
12/08:00pm 25.9 SSE 24 29 1011.8 - - - - - - - - -
12/07:30pm 26.1 SSE 22 28 1011.8 - - - - - - - - -
12/07:20pm 25.9 SSE 23 - 1011.5 - - - - - - - - -
12/07:00pm 26.1 SSE 23 28 1011.5 - - - - - - - - -
12/06:30pm 26.4 SSE 20 26 1011.3 - - - - - - - - -
12/06:20pm 26.5 SSE 21 - 1011.2 - - - - - - - - -
12/06:00pm 26.4 SSE 20 25 1011.2 - - - - - - - - -
12/05:30pm 26.5 SSE 22 26 1011.0 - - - - - - - - -
12/05:20pm 26.4 SSE 22 - 1010.8 - - - - - - - - -
12/05:00pm 26.2 SSE 18 24 1010.7 - - - - - - - - -
12/04:30pm 26.3 SSE 17 21 1010.7 - - - - - - - - -
12/04:20pm 26.4 SSE 17 - 1010.6 - - - - - - - - -
12/04:00pm 26.5 SSE 17 21 1010.5 - - - - - - - - -
12/03:30pm 26.5 SSE 18 22 1010.5 - - - - - - - - -
12/03:20pm 26.5 SSE 19 - 1010.4 - - - - - - - - -
12/03:00pm 26.3 SSE 20 23 1010.6 - - - - - - - - -
12/02:30pm 26.3 SE 20 23 1010.7 - - - - - - - - -
12/02:20pm 26.4 SE 20 - 1010.7 - - - - - - - - -
12/02:00pm 26.6 SSE 18 22 1010.9 - - - - - - - - -
12/01:30pm 26.5 SSE 19 23 1011.0 - - - - - - - - -
12/01:20pm 26.4 SE 19 - 1011.0 - - - - - - - - -
12/01:00pm 26.3 SSE 18 21 1011.1 - - - - - - - - -
12/12:30pm 26.3 SSE 17 20 1011.5 - - - - - - - - -
12/12:20pm 26.3 SSE 17 - 1011.6 - - - - - - - - -
12/12:00pm 26.0 SE 18 21 1011.7 - - - - - - - - -
12/11:30am 26.2 SSE 17 20 1011.9 - - - - - - - - -
12/11:20am 26.3 SE 17 - 1012.0 - - - - - - - - -
12/11:00am 26.3 SSE 17 21 1012.1 - - - - - - - - -
12/10:30am 26.4 SE 19 22 1012.3 - - - - - - - - -
12/10:20am 26.3 SE 19 - 1012.3 - - - - - - - - -
12/10:00am 26.2 SE 20 22 1012.5 - - - - - - - - -
12/09:30am 26.2 SE 20 23 1012.5 - - - - - - - - -
12/09:20am 26.3 SE 20 - 1012.4 - - - - - - - - -
12/09:00am 26.2 SE 20 22 1012.5 - - - - - - - - -
12/08:30am 26.1 SE 21 25 1012.4 - - - - - - - - -
12/08:20am 26.1 SE 20 - 1012.3 - - - - - - - - -
12/08:00am 26.3 SE 20 23 1012.6 - - - - - - - - -
12/07:30am 26.1 SE 21 24 1012.4 - - - - - - - - -
12/07:20am 26.1 SE 21 - 1012.2 - - - - - - - - -
12/07:00am 25.9 SE 22 25 1012.2 - - - - - - - - -
12/06:30am 26.0 SE 21 25 1011.8 - - - - - - - - -
12/06:20am 26.0 SE 21 - 1011.6 - - - - - - - - -
12/06:00am 25.8 SE 22 26 1011.4 - - - - - - - - -
12/05:30am 25.9 SE 20 24 1011.0 - - - - - - - - -
12/05:20am 25.8 SE 20 - 1010.9 - - - - - - - - -
12/05:00am 25.8 SE 20 23 1010.8 - - - - - - - - -
12/04:30am 25.8 SE 18 22 1010.6 - - - - - - - - -
12/04:20am 25.8 SE 19 - 1010.3 - - - - - - - - -
12/04:00am 25.8 SE 19 22 1010.5 - - - - - - - - -
12/03:30am 25.7 SE 20 24 1010.3 - - - - - - - - -
12/03:20am 25.6 SE 21 - 1010.0 - - - - - - - - -
12/03:00am 25.7 SE 18 24 1010.0 - - - - - - - - -
12/02:30am 25.9 SE 20 22 1010.4 - - - - - - - - -
12/02:20am 26.0 SE 19 - 1010.4 - - - - - - - - -
12/02:00am 25.8 SE 19 23 1010.4 - - - - - - - - -
12/01:30am 25.6 SE 20 26 1010.6 - - - - - - - - -
12/01:20am 26.0 SE 20 - 1010.5 - - - - - - - - -
12/01:00am 25.8 SE 19 22 1010.9 - - - - - - - - -
12/12:30am 25.8 SE 20 23 1011.2 - - - - - - - - -
12/12:20am 26.0 SE 20 - 1011.2 - - - - - - - - -
12/12:00am 25.6 SSE 17 21 1011.7 - - - - - - - - -
 
Date/Time
EST
Temp
°C
Wind Pressure Rain since
9am
mm
Weather Cloud Vis
km
Sea
Height
m
Swell
Dir  Spd
kts
Gust
kts
hPa Trend Height
m
Period
s
Dir
11/11:30pm 26.0 SE 18 21 1012.1 - - - - - - - - -
11/11:20pm 26.0 SE 19 - 1012.1 - - - - - - - - -
11/11:00pm 25.8 SE 20 24 1012.2 - - - - - - - - -
11/10:30pm 26.0 SE 20 23 1012.4 - - - - - - - - -
11/10:20pm 25.9 SE 20 - 1012.4 - - - - - - - - -
11/10:00pm 26.1 SE 20 23 1012.4 - - - - - - - - -
11/09:30pm 26.1 SE 20 23 1012.3 - - - - - - - - -
11/09:20pm 26.1 SE 19 - 1012.1 - - - - - - - - -
11/09:00pm 26.2 SE 21 25 1012.2 - - - - - - - - -
11/08:30pm 26.1 SE 20 22 1012.1 - - - - - - - - -
11/08:20pm 25.9 SE 20 - 1012.0 - - - - - - - - -
11/08:00pm 25.9 SE 19 24 1012.0 - - - - - - - - -
11/07:30pm 26.1 SE 20 23 1011.9 - - - - - - - - -
11/07:20pm 26.1 SE 19 - 1011.7 - - - - - - - - -
11/07:00pm 26.0 SE 18 21 1011.8 - - - - - - - - -
11/06:30pm 26.0 SE 19 22 1011.4 - - - - - - - - -
11/06:20pm 26.3 SE 19 - 1011.3 - - - - - - - - -
11/06:00pm 25.9 SE 18 21 1011.4 - - - - - - - - -
11/05:30pm 25.6 SE 19 21 1011.3 - - - - - - - - -
11/05:20pm 26.0 SE 18 - 1011.1 - - - - - - - - -
11/05:00pm 26.0 SE 19 21 1011.0 - - - - - - - - -
11/04:30pm 26.4 SSE 18 21 1010.7 - - - - - - - - -
11/04:20pm 26.0 SSE 18 - 1010.6 - - - - - - - - -
11/04:00pm 26.3 SSE 16 21 1010.5 - - - - - - - - -
11/03:30pm 26.5 SE 16 20 1010.6 - - - - - - - - -
11/03:20pm 26.4 SE 15 - 1010.5 - - - - - - - - -
11/03:00pm 26.5 SSE 15 19 1010.8 - - - - - - - - -
11/02:30pm 26.4 SSE 14 17 1011.2 - - - - - - - - -
11/02:20pm 26.5 SE 15 - 1011.2 - - - - - - - - -
11/02:00pm 26.7 SE 15 18 1011.5 - - - - - - - - -
11/01:30pm 26.3 SE 16 18 1011.6 - - - - - - - - -
11/01:20pm 26.4 SE 14 - 1011.6 - - - - - - - - -
11/01:00pm 26.4 SSE 14 18 1011.8 - - - - - - - - -
11/12:30pm 26.4 SE 15 19 1012.2 - - - - - - - - -
11/12:20pm 26.4 SE 16 - 1012.1 - - - - - - - - -
11/12:00pm 26.3 SE 15 17 1012.5 - - - - - - - - -
11/11:30am 26.3 SE 15 18 1013.0 - - - - - - - - -
11/11:20am 26.4 SE 15 - 1013.0 - - - - - - - - -
11/11:00am 26.4 SE 15 18 1013.1 - - - - - - - - -
11/10:30am 26.4 SE 15 17 1013.4 - - - - - - - - -
11/10:20am 26.4 SE 15 - 1013.3 - - - - - - - - -
11/10:00am 26.2 SE 15 17 1013.6 - - - - - - - - -
11/09:30am 26.3 SE 15 17 1013.7 - - - - - - - - -
11/09:20am 26.3 SE 15 - 1013.7 - - - - - - - - -
11/09:00am 26.2 ESE 14 16 1013.7 - - - - - - - - -
11/08:30am 26.2 ESE 15 17 1013.6 - - - - - - - - -
11/08:20am 26.2 ESE 15 - 1013.4 - - - - - - - - -
11/08:00am 26.2 SE 16 18 1013.6 - - - - - - - - -
11/07:30am 26.3 SE 15 16 1013.7 - - - - - - - - -
11/07:20am 26.2 ESE 14 - 1013.5 - - - - - - - - -
11/07:00am 26.3 ESE 15 17 1013.6 - - - - - - - - -
11/06:30am 26.3 ESE 15 17 1013.3 - - - - - - - - -
11/06:20am 26.4 ESE 16 - 1013.1 - - - - - - - - -
11/06:00am 26.1 ESE 15 19 1013.1 - - - - - - - - -
11/05:30am 26.0 SE 17 20 1012.8 - - - - - - - - -
11/05:20am 26.0 SE 16 - 1012.7 - - - - - - - - -
11/05:00am 25.9 ESE 15 18 1012.5 - - - - - - - - -
11/04:30am 25.8 SE 16 19 1012.3 - - - - - - - - -
11/04:20am 26.0 SE 17 - 1012.0 - - - - - - - - -
11/04:00am 26.1 ESE 15 19 1012.0 - - - - - - - - -
11/03:30am 26.0 ESE 16 19 1011.8 - - - - - - - - -
11/03:20am 26.0 ESE 16 - 1011.8 - - - - - - - - -
11/03:00am 26.0 SE 17 20 1011.9 - - - - - - - - -
11/02:30am 25.8 ESE 18 20 1012.1 - - - - - - - - -
11/02:20am 25.7 ESE 17 - 1012.1 - - - - - - - - -
11/02:00am 25.9 ESE 17 20 1012.3 - - - - - - - - -
11/01:30am 25.9 ESE 18 21 1012.5 - - - - - - - - -
11/01:20am 25.9 ESE 19 - 1012.5 - - - - - - - - -
11/01:00am 26.1 ESE 20 22 1013.0 - - - - - - - - -
11/12:30am 25.9 ESE 19 23 1013.3 - - - - - - - - -
11/12:20am 26.1 ESE 19 - 1013.4 - - - - - - - - -
11/12:00am 26.0 ESE 19 23 1013.7 - - - - - - - - -
 
Date/Time
EST
Temp
°C
Wind Pressure Rain since
9am
mm
Weather Cloud Vis
km
Sea
Height
m
Swell
Dir  Spd
kts
Gust
kts
hPa Trend Height
m
Period
s
Dir
10/11:30pm 25.9 ESE 20 22 1014.2 - - - - - - - - -
10/11:20pm 26.0 ESE 20 - 1014.2 - - - - - - - - -
10/11:00pm 26.0 ESE 21 23 1014.3 - - - - - - - - -
10/10:30pm 26.2 ESE 21 25 1014.5 - - - - - - - - -
10/10:20pm 26.2 ESE 21 - 1014.4 - - - - - - - - -
10/10:00pm 26.2 ESE 20 24 1014.5 - - - - - - - - -
10/09:30pm 26.1 ESE 22 25 1014.5 - - - - - - - - -
10/09:20pm 26.1 ESE 21 - 1014.3 - - - - - - - - -
10/09:00pm 26.4 ESE 21 24 1014.3 - - - - - - - - -

Other Formats:

Comma delimited format used in spreadsheet applications
http://www.bom.gov.au/fwo/IDQ60701/IDQ60701.94371.axf

JavaScript Object Notation format (JSON) in row-major order
http://www.bom.gov.au/fwo/IDQ60701/IDQ60701.94371.json